sensor_id;sensor_type;location;lat;lon;timestamp;pressure;altitude;pressure_sealevel;temperature;humidity
21276;BME280;36472;52.170;20.884;2023-04-06T00:01:19;101065.47;;;4.19;47.78
21276;BME280;36472;52.170;20.884;2023-04-06T00:03:48;101062.75;;;4.22;47.41
21276;BME280;36472;52.170;20.884;2023-04-06T00:06:18;101062.75;;;4.22;47.23
21276;BME280;36472;52.170;20.884;2023-04-06T00:08:47;101058.28;;;4.27;47.03
21276;BME280;36472;52.170;20.884;2023-04-06T00:11:16;101060.16;;;4.22;47.63
21276;BME280;36472;52.170;20.884;2023-04-06T00:13:45;101071.38;;;4.25;47.64
21276;BME280;36472;52.170;20.884;2023-04-06T00:16:14;101067.97;;;4.22;47.89
21276;BME280;36472;52.170;20.884;2023-04-06T00:18:43;101056.75;;;4.20;48.25
21276;BME280;36472;52.170;20.884;2023-04-06T00:21:13;101051.56;;;4.20;48.49
21276;BME280;36472;52.170;20.884;2023-04-06T00:23:44;101052.34;;;4.22;48.34
21276;BME280;36472;52.170;20.884;2023-04-06T00:26:13;101055.88;;;4.21;47.87
21276;BME280;36472;52.170;20.884;2023-04-06T00:28:46;101053.31;;;4.19;47.49
21276;BME280;36472;52.170;20.884;2023-04-06T00:31:15;101050.53;;;4.25;47.05
21276;BME280;36472;52.170;20.884;2023-04-06T00:33:44;101057.63;;;4.20;46.95
21276;BME280;36472;52.170;20.884;2023-04-06T00:36:12;101048.06;;;4.21;46.88
21276;BME280;36472;52.170;20.884;2023-04-06T00:38:42;101041.06;;;4.23;47.00
21276;BME280;36472;52.170;20.884;2023-04-06T00:41:12;101042.06;;;4.19;47.42
21276;BME280;36472;52.170;20.884;2023-04-06T00:43:41;101043.06;;;4.13;46.93
21276;BME280;36472;52.170;20.884;2023-04-06T00:46:10;101041.41;;;4.10;47.31
21276;BME280;36472;52.170;20.884;2023-04-06T00:48:40;101039.59;;;4.14;47.49
21276;BME280;36472;52.170;20.884;2023-04-06T00:51:09;101037.81;;;4.15;47.08
21276;BME280;36472;52.170;20.884;2023-04-06T00:53:38;101039.59;;;4.14;47.04
21276;BME280;36472;52.170;20.884;2023-04-06T00:56:09;101031.75;;;4.16;47.34
21276;BME280;36472;52.170;20.884;2023-04-06T00:58:52;101033.41;;;4.17;47.04
21276;BME280;36472;52.170;20.884;2023-04-06T01:01:23;101039.25;;;4.25;47.13
21276;BME280;36472;52.170;20.884;2023-04-06T01:03:55;101033.41;;;4.17;47.28
21276;BME280;36472;52.170;20.884;2023-04-06T01:06:24;101034.34;;;4.16;47.99
21276;BME280;36472;52.170;20.884;2023-04-06T01:09:00;101027.47;;;4.13;47.32
21276;BME280;36472;52.170;20.884;2023-04-06T01:11:29;101035.19;;;4.16;47.03
21276;BME280;36472;52.170;20.884;2023-04-06T01:14:03;101026.53;;;4.16;46.79
21276;BME280;36472;52.170;20.884;2023-04-06T01:16:47;101031.78;;;4.14;46.86
21276;BME280;36472;52.170;20.884;2023-04-06T01:19:19;101032.50;;;4.19;47.30
21276;BME280;36472;52.170;20.884;2023-04-06T01:21:52;101022.09;;;4.19;47.15
21276;BME280;36472;52.170;20.884;2023-04-06T01:24:25;101028.09;;;4.21;47.29
21276;BME280;36472;52.170;20.884;2023-04-06T01:27:03;101019.38;;;4.24;47.11
21276;BME280;36472;52.170;20.884;2023-04-06T01:29:56;101021.00;;;4.26;47.48
21276;BME280;36472;52.170;20.884;2023-04-06T01:32:39;101022.06;;;4.21;47.65
21276;BME280;36472;52.170;20.884;2023-04-06T01:35:10;101014.16;;;4.24;47.67
21276;BME280;36472;52.170;20.884;2023-04-06T01:37:47;101017.59;;;4.24;47.96
21276;BME280;36472;52.170;20.884;2023-04-06T01:40:25;101014.88;;;4.29;46.96
21276;BME280;36472;52.170;20.884;2023-04-06T01:42:54;101017.53;;;4.27;47.34
21276;BME280;36472;52.170;20.884;2023-04-06T01:45:31;101005.41;;;4.26;46.85
21276;BME280;36472;52.170;20.884;2023-04-06T01:48:10;101012.44;;;4.23;47.55
21276;BME280;36472;52.170;20.884;2023-04-06T01:50:39;101008.00;;;4.26;47.40
21276;BME280;36472;52.170;20.884;2023-04-06T01:53:10;101002.75;;;4.28;47.85
21276;BME280;36472;52.170;20.884;2023-04-06T01:55:43;101009.94;;;4.20;47.24
21276;BME280;36472;52.170;20.884;2023-04-06T01:58:18;101001.16;;;4.24;47.64
21276;BME280;36472;52.170;20.884;2023-04-06T02:00:48;101002.78;;;4.26;47.51
21276;BME280;36472;52.170;20.884;2023-04-06T02:03:17;101007.84;;;4.33;46.99
21276;BME280;36472;52.170;20.884;2023-04-06T02:05:48;100992.25;;;4.31;47.70
21276;BME280;36472;52.170;20.884;2023-04-06T02:08:24;100994.06;;;4.29;47.21
21276;BME280;36472;52.170;20.884;2023-04-06T02:10:54;100999.28;;;4.29;47.57
21276;BME280;36472;52.170;20.884;2023-04-06T02:13:30;100997.50;;;4.29;47.13
21276;BME280;36472;52.170;20.884;2023-04-06T02:15:59;100994.09;;;4.27;47.32
21276;BME280;36472;52.170;20.884;2023-04-06T02:18:30;100998.50;;;4.25;47.71
21276;BME280;36472;52.170;20.884;2023-04-06T02:21:00;100995.94;;;4.24;47.78
21276;BME280;36472;52.170;20.884;2023-04-06T02:23:29;100992.44;;;4.25;47.84
21276;BME280;36472;52.170;20.884;2023-04-06T02:25:59;100991.59;;;4.24;48.15
21276;BME280;36472;52.170;20.884;2023-04-06T02:28:28;100988.97;;;4.24;48.17
21276;BME280;36472;52.170;20.884;2023-04-06T02:30:57;100985.44;;;4.27;48.25
21276;BME280;36472;52.170;20.884;2023-04-06T02:33:27;100988.13;;;4.24;48.53
21276;BME280;36472;52.170;20.884;2023-04-06T02:35:56;100986.59;;;4.17;48.85
21276;BME280;36472;52.170;20.884;2023-04-06T02:38:25;100983.22;;;4.13;48.44
21276;BME280;36472;52.170;20.884;2023-04-06T02:40:54;100977.28;;;4.09;49.12
21276;BME280;36472;52.170;20.884;2023-04-06T02:43:27;100974.53;;;4.14;49.08
21276;BME280;36472;52.170;20.884;2023-04-06T02:46:17;100978.06;;;4.11;49.29
21276;BME280;36472;52.170;20.884;2023-04-06T02:48:47;100975.66;;;4.05;49.57
21276;BME280;36472;52.170;20.884;2023-04-06T02:51:16;100972.22;;;4.05;50.27
21276;BME280;36472;52.170;20.884;2023-04-06T02:53:50;100973.94;;;4.04;49.99
21276;BME280;36472;52.170;20.884;2023-04-06T02:56:19;100974.09;;;4.00;50.16
21276;BME280;36472;52.170;20.884;2023-04-06T02:58:52;100969.09;;;3.92;50.68
21276;BME280;36472;52.170;20.884;2023-04-06T03:01:26;100981.31;;;3.90;50.74
21276;BME280;36472;52.170;20.884;2023-04-06T03:03:59;100983.09;;;3.88;51.20
21276;BME280;36472;52.170;20.884;2023-04-06T03:06:29;100980.53;;;3.86;51.22
21276;BME280;36472;52.170;20.884;2023-04-06T03:09:07;100975.41;;;3.83;51.54
21276;BME280;36472;52.170;20.884;2023-04-06T03:11:39;100983.25;;;3.82;51.88
21276;BME280;36472;52.170;20.884;2023-04-06T03:14:09;100982.56;;;3.75;51.84
21276;BME280;36472;52.170;20.884;2023-04-06T03:16:38;100974.00;;;3.71;51.94
21276;BME280;36472;52.170;20.884;2023-04-06T03:19:07;100977.41;;;3.73;52.14
21276;BME280;36472;52.170;20.884;2023-04-06T03:21:37;100979.19;;;3.73;52.28
21276;BME280;36472;52.170;20.884;2023-04-06T03:24:07;100978.41;;;3.69;52.46
21276;BME280;36472;52.170;20.884;2023-04-06T03:26:36;100988.81;;;3.69;52.72
21276;BME280;36472;52.170;20.884;2023-04-06T03:29:08;100985.28;;;3.70;53.01
21276;BME280;36472;52.170;20.884;2023-04-06T03:31:38;100987.22;;;3.64;53.17
21276;BME280;36472;52.170;20.884;2023-04-06T03:34:23;100990.75;;;3.61;53.22
21276;BME280;36472;52.170;20.884;2023-04-06T03:36:52;100985.72;;;3.55;53.93
21276;BME280;36472;52.170;20.884;2023-04-06T03:39:38;100987.38;;;3.58;53.97
21276;BME280;36472;52.170;20.884;2023-04-06T03:42:08;100984.75;;;3.59;54.00
21276;BME280;36472;52.170;20.884;2023-04-06T03:44:43;100977.09;;;3.53;54.64
21276;BME280;36472;52.170;20.884;2023-04-06T03:47:13;100980.63;;;3.52;54.67
21276;BME280;36472;52.170;20.884;2023-04-06T03:49:42;100978.06;;;3.50;54.82
21276;BME280;36472;52.170;20.884;2023-04-06T03:52:13;100979.81;;;3.48;54.65
21276;BME280;36472;52.170;20.884;2023-04-06T03:54:42;100982.56;;;3.44;55.12
21276;BME280;36472;52.170;20.884;2023-04-06T03:57:11;100983.44;;;3.43;55.27
21276;BME280;36472;52.170;20.884;2023-04-06T03:59:40;100984.34;;;3.42;55.32
21276;BME280;36472;52.170;20.884;2023-04-06T04:02:10;100981.81;;;3.39;55.24
21276;BME280;36472;52.170;20.884;2023-04-06T04:04:39;100981.13;;;3.32;55.97
21276;BME280;36472;52.170;20.884;2023-04-06T04:07:08;100985.69;;;3.22;56.59
21276;BME280;36472;52.170;20.884;2023-04-06T04:09:37;100985.59;;;3.27;56.68
21276;BME280;36472;52.170;20.884;2023-04-06T04:12:06;100984.69;;;3.28;56.46
21276;BME280;36472;52.170;20.884;2023-04-06T04:14:35;100982.78;;;3.34;56.91
21276;BME280;36472;52.170;20.884;2023-04-06T04:17:04;100989.78;;;3.32;56.57
21276;BME280;36472;52.170;20.884;2023-04-06T04:19:35;100982.66;;;3.39;57.01
21276;BME280;36472;52.170;20.884;2023-04-06T04:22:04;100984.50;;;3.35;57.37
21276;BME280;36472;52.170;20.884;2023-04-06T04:24:38;100979.22;;;3.39;57.04
21276;BME280;36472;52.170;20.884;2023-04-06T04:27:07;100979.22;;;3.39;57.29
21276;BME280;36472;52.170;20.884;2023-04-06T04:29:36;100983.47;;;3.41;57.40
21276;BME280;36472;52.170;20.884;2023-04-06T04:32:09;100974.94;;;3.36;57.53
21276;BME280;36472;52.170;20.884;2023-04-06T04:34:39;100975.91;;;3.33;57.61
21276;BME280;36472;52.170;20.884;2023-04-06T04:37:15;100972.38;;;3.34;58.26
21276;BME280;36472;52.170;20.884;2023-04-06T04:39:51;100975.91;;;3.33;57.86
21276;BME280;36472;52.170;20.884;2023-04-06T04:42:20;100971.63;;;3.31;57.96
21276;BME280;36472;52.170;20.884;2023-04-06T04:44:52;100965.59;;;3.30;57.67
21276;BME280;36472;52.170;20.884;2023-04-06T04:47:33;100965.50;;;3.33;57.73
21276;BME280;36472;52.170;20.884;2023-04-06T04:50:04;100963.78;;;3.32;57.79
21276;BME280;36472;52.170;20.884;2023-04-06T04:52:37;100963.13;;;3.24;58.54
21276;BME280;36472;52.170;20.884;2023-04-06T04:55:16;100969.91;;;3.31;58.17
21276;BME280;36472;52.170;20.884;2023-04-06T04:57:50;100965.38;;;3.38;57.89
21276;BME280;36472;52.170;20.884;2023-04-06T05:00:24;100964.47;;;3.39;57.70
21276;BME280;36472;52.170;20.884;2023-04-06T05:02:57;100959.19;;;3.44;57.89
21276;BME280;36472;52.170;20.884;2023-04-06T05:05:30;100964.28;;;3.47;58.01
21276;BME280;36472;52.170;20.884;2023-04-06T05:08:01;100964.41;;;3.42;58.14
21276;BME280;36472;52.170;20.884;2023-04-06T05:10:43;100959.22;;;3.42;57.89
21276;BME280;36472;52.170;20.884;2023-04-06T05:13:13;100957.34;;;3.47;58.37
21276;BME280;36472;52.170;20.884;2023-04-06T05:15:43;100967.69;;;3.49;57.57
21276;BME280;36472;52.170;20.884;2023-04-06T05:18:22;100969.31;;;3.53;57.99
21276;BME280;36472;52.170;20.884;2023-04-06T05:20:53;100963.31;;;3.51;56.78
21276;BME280;36472;52.170;20.884;2023-04-06T05:23:29;100962.69;;;3.41;57.74
21276;BME280;36472;52.170;20.884;2023-04-06T05:26:00;100962.84;;;3.36;57.50
21276;BME280;36472;52.170;20.884;2023-04-06T05:28:29;100964.44;;;3.41;57.54
21276;BME280;36472;52.170;20.884;2023-04-06T05:31:00;100969.53;;;3.45;57.47
21276;BME280;36472;52.170;20.884;2023-04-06T05:33:36;100967.97;;;3.38;57.81
21276;BME280;36472;52.170;20.884;2023-04-06T05:36:10;100967.78;;;3.46;57.49
21276;BME280;36472;52.170;20.884;2023-04-06T05:38:45;100963.28;;;3.52;57.51
21276;BME280;36472;52.170;20.884;2023-04-06T05:41:43;100955.50;;;3.51;57.08
21276;BME280;36472;52.170;20.884;2023-04-06T05:44:14;100957.13;;;3.55;57.20
21276;BME280;36472;52.170;20.884;2023-04-06T05:46:48;100958.38;;;3.73;56.57
21276;BME280;36472;52.170;20.884;2023-04-06T05:49:17;100954.94;;;3.72;56.83
21276;BME280;36472;52.170;20.884;2023-04-06T05:51:47;100947.63;;;3.85;56.64
21276;BME280;36472;52.170;20.884;2023-04-06T05:54:17;100946.50;;;3.94;56.24
21276;BME280;36472;52.170;20.884;2023-04-06T05:56:46;100950.41;;;4.09;55.42
21276;BME280;36472;52.170;20.884;2023-04-06T05:59:15;100948.25;;;4.23;55.37
21276;BME280;36472;52.170;20.884;2023-04-06T06:01:45;100953.47;;;4.22;55.83
21276;BME280;36472;52.170;20.884;2023-04-06T06:04:14;100941.72;;;4.38;55.62
21276;BME280;36472;52.170;20.884;2023-04-06T06:06:47;100950.16;;;4.46;54.41
21276;BME280;36472;52.170;20.884;2023-04-06T06:09:19;100945.41;;;4.59;54.61
21276;BME280;36472;52.170;20.884;2023-04-06T06:12:05;100952.19;;;4.65;53.87
21276;BME280;36472;52.170;20.884;2023-04-06T06:14:35;100937.75;;;4.81;53.39
21276;BME280;36472;52.170;20.884;2023-04-06T06:17:03;100937.38;;;4.94;53.11
21276;BME280;36472;52.170;20.884;2023-04-06T06:19:33;100934.44;;;5.03;52.36
21276;BME280;36472;52.170;20.884;2023-04-06T06:22:06;100936.31;;;4.99;52.68
21276;BME280;36472;52.170;20.884;2023-04-06T06:24:40;100928.34;;;5.04;52.57
21276;BME280;36472;52.170;20.884;2023-04-06T06:27:10;100933.97;;;5.17;52.24
21276;BME280;36472;52.170;20.884;2023-04-06T06:29:39;100922.47;;;5.22;51.37
21276;BME280;36472;52.170;20.884;2023-04-06T06:32:08;100933.53;;;5.29;51.07
21276;BME280;36472;52.170;20.884;2023-04-06T06:34:39;100930.88;;;5.31;50.49
21276;BME280;36472;52.170;20.884;2023-04-06T06:37:11;100936.00;;;5.34;50.75
21276;BME280;36472;52.170;20.884;2023-04-06T06:39:41;100928.22;;;5.32;50.69
21276;BME280;36472;52.170;20.884;2023-04-06T06:42:10;100922.19;;;5.32;50.97
21276;BME280;36472;52.170;20.884;2023-04-06T06:44:57;100924.09;;;5.52;50.21
21276;BME280;36472;52.170;20.884;2023-04-06T06:47:26;100923.50;;;5.43;49.76
21276;BME280;36472;52.170;20.884;2023-04-06T06:49:55;100924.88;;;5.54;49.86
21276;BME280;36472;52.170;20.884;2023-04-06T06:52:25;100925.81;;;5.51;49.50
21276;BME280;36472;52.170;20.884;2023-04-06T06:54:54;100920.84;;;5.45;49.76
21276;BME280;36472;52.170;20.884;2023-04-06T06:57:25;100911.06;;;5.27;50.06
21276;BME280;36472;52.170;20.884;2023-04-06T06:59:54;100912.00;;;5.49;49.62
21276;BME280;36472;52.170;20.884;2023-04-06T07:02:23;100915.25;;;5.56;49.02
21276;BME280;36472;52.170;20.884;2023-04-06T07:04:52;100915.63;;;5.69;49.36
21276;BME280;36472;52.170;20.884;2023-04-06T07:07:21;100920.78;;;5.70;48.75
21276;BME280;36472;52.170;20.884;2023-04-06T07:09:52;100922.28;;;5.77;48.67
21276;BME280;36472;52.170;20.884;2023-04-06T07:12:21;100917.81;;;5.81;47.84
21276;BME280;36472;52.170;20.884;2023-04-06T07:14:50;100924.00;;;6.02;47.75
21276;BME280;36472;52.170;20.884;2023-04-06T07:17:19;100915.50;;;5.95;47.62
21276;BME280;36472;52.170;20.884;2023-04-06T07:19:48;100914.00;;;6.13;48.09
21276;BME280;36472;52.170;20.884;2023-04-06T07:22:17;100919.66;;;6.25;48.26
21276;BME280;36472;52.170;20.884;2023-04-06T07:24:46;100923.72;;;6.32;47.20
21276;BME280;36472;52.170;20.884;2023-04-06T07:27:16;100910.25;;;6.21;48.10
21276;BME280;36472;52.170;20.884;2023-04-06T07:29:46;100902.72;;;6.35;47.95
21276;BME280;36472;52.170;20.884;2023-04-06T07:32:15;100916.44;;;6.40;47.88
21276;BME280;36472;52.170;20.884;2023-04-06T07:34:44;100908.66;;;6.39;48.56
21276;BME280;36472;52.170;20.884;2023-04-06T07:37:14;100905.38;;;6.33;48.68
21276;BME280;36472;52.170;20.884;2023-04-06T07:39:43;100912.44;;;6.31;47.97
21276;BME280;36472;52.170;20.884;2023-04-06T07:42:13;100909.75;;;6.33;48.49
21276;BME280;36472;52.170;20.884;2023-04-06T07:44:45;100910.25;;;6.43;48.42
21276;BME280;36472;52.170;20.884;2023-04-06T07:47:13;100911.09;;;6.21;48.86
21276;BME280;36472;52.170;20.884;2023-04-06T07:49:43;100914.09;;;6.34;48.84
21276;BME280;36472;52.170;20.884;2023-04-06T07:52:13;100902.09;;;6.28;48.25
21276;BME280;36472;52.170;20.884;2023-04-06T07:54:43;100910.47;;;6.14;48.31
21276;BME280;36472;52.170;20.884;2023-04-06T07:57:13;100902.91;;;6.30;49.03
21276;BME280;36472;52.170;20.884;2023-04-06T07:59:44;100905.28;;;6.36;48.68
21276;BME280;36472;52.170;20.884;2023-04-06T08:02:13;100894.72;;;6.40;47.74
21276;BME280;36472;52.170;20.884;2023-04-06T08:04:43;100898.41;;;6.56;48.40
21276;BME280;36472;52.170;20.884;2023-04-06T08:07:12;100900.25;;;6.74;48.71
21276;BME280;36472;52.170;20.884;2023-04-06T08:09:41;100889.22;;;6.68;47.70
21276;BME280;36472;52.170;20.884;2023-04-06T08:12:10;100905.09;;;6.63;49.02
21276;BME280;36472;52.170;20.884;2023-04-06T08:14:39;100900.22;;;6.54;48.36
21276;BME280;36472;52.170;20.884;2023-04-06T08:17:09;100900.81;;;6.39;49.65
21276;BME280;36472;52.170;20.884;2023-04-06T08:19:38;100894.94;;;6.33;50.49
21276;BME280;36472;52.170;20.884;2023-04-06T08:22:07;100891.25;;;6.39;49.64
21276;BME280;36472;52.170;20.884;2023-04-06T08:24:36;100902.00;;;6.31;50.57
21276;BME280;36472;52.170;20.884;2023-04-06T08:27:05;100893.88;;;6.39;50.37
21276;BME280;36472;52.170;20.884;2023-04-06T08:29:34;100888.19;;;6.50;49.86
21276;BME280;36472;52.170;20.884;2023-04-06T08:32:03;100894.09;;;6.55;49.73
21276;BME280;36472;52.170;20.884;2023-04-06T08:34:34;100897.38;;;6.38;49.69
21276;BME280;36472;52.170;20.884;2023-04-06T08:37:03;100883.97;;;6.25;50.29
21276;BME280;36472;52.170;20.884;2023-04-06T08:39:33;100892.09;;;6.17;50.78
21276;BME280;36472;52.170;20.884;2023-04-06T08:42:01;100882.38;;;6.21;51.14
21276;BME280;36472;52.170;20.884;2023-04-06T08:44:32;100885.91;;;6.20;51.36
21276;BME280;36472;52.170;20.884;2023-04-06T08:47:04;100885.66;;;6.26;51.73
21276;BME280;36472;52.170;20.884;2023-04-06T08:49:37;100884.50;;;6.33;51.37
21276;BME280;36472;52.170;20.884;2023-04-06T08:52:07;100884.50;;;6.33;52.17
21276;BME280;36472;52.170;20.884;2023-04-06T08:54:37;100891.25;;;6.17;52.43
21276;BME280;36472;52.170;20.884;2023-04-06T08:57:07;100892.03;;;6.19;52.85
21276;BME280;36472;52.170;20.884;2023-04-06T08:59:36;100874.00;;;6.13;53.33
21276;BME280;36472;52.170;20.884;2023-04-06T09:02:11;100876.53;;;5.91;54.87
21276;BME280;36472;52.170;20.884;2023-04-06T09:04:48;100886.81;;;5.95;56.10
21276;BME280;36472;52.170;20.884;2023-04-06T09:07:18;100878.47;;;5.86;56.27
21276;BME280;36472;52.170;20.884;2023-04-06T09:09:47;100882.03;;;5.85;56.85
21276;BME280;36472;52.170;20.884;2023-04-06T09:12:24;100880.19;;;5.87;57.03
21276;BME280;36472;52.170;20.884;2023-04-06T09:14:55;100873.75;;;5.97;56.49
21276;BME280;36472;52.170;20.884;2023-04-06T09:17:26;100875.59;;;5.93;56.29
21276;BME280;36472;52.170;20.884;2023-04-06T09:19:57;100870.72;;;5.84;57.21
21276;BME280;36472;52.170;20.884;2023-04-06T09:22:35;100873.91;;;5.69;58.27
21276;BME280;36472;52.170;20.884;2023-04-06T09:25:06;100854.59;;;5.51;60.08
21276;BME280;36472;52.170;20.884;2023-04-06T09:27:37;100862.78;;;5.63;59.40
21276;BME280;36472;52.170;20.884;2023-04-06T09:30:08;100859.50;;;5.58;59.49
21276;BME280;36472;52.170;20.884;2023-04-06T09:32:46;100854.75;;;5.46;60.61
21276;BME280;36472;52.170;20.884;2023-04-06T09:35:17;100864.38;;;5.44;61.75
21276;BME280;36472;52.170;20.884;2023-04-06T09:37:49;100851.69;;;5.58;61.74
21276;BME280;36472;52.170;20.884;2023-04-06T09:40:18;100847.16;;;5.63;61.54
21276;BME280;36472;52.170;20.884;2023-04-06T09:42:50;100850.00;;;5.57;59.86
21276;BME280;36472;52.170;20.884;2023-04-06T09:45:20;100846.13;;;5.44;60.15
21276;BME280;36472;52.170;20.884;2023-04-06T09:47:50;100845.28;;;5.43;61.04
21276;BME280;36472;52.170;20.884;2023-04-06T09:50:25;100841.47;;;5.29;61.53
21276;BME280;36472;52.170;20.884;2023-04-06T09:52:58;100836.78;;;5.15;63.02
21276;BME280;36472;52.170;20.884;2023-04-06T09:55:32;100844.16;;;5.02;64.38
21276;BME280;36472;52.170;20.884;2023-04-06T09:58:05;100838.56;;;4.62;67.48
21276;BME280;36472;52.170;20.884;2023-04-06T10:00:45;100832.94;;;4.49;69.95
21276;BME280;36472;52.170;20.884;2023-04-06T10:03:31;100840.03;;;4.44;71.56
21276;BME280;36472;52.170;20.884;2023-04-06T10:06:12;100837.53;;;4.41;72.88
21276;BME280;36472;52.170;20.884;2023-04-06T10:08:45;100832.81;;;4.53;73.52
21276;BME280;36472;52.170;20.884;2023-04-06T10:11:16;100830.44;;;4.46;72.84
21276;BME280;36472;52.170;20.884;2023-04-06T10:13:48;100831.63;;;4.36;73.99
21276;BME280;36472;52.170;20.884;2023-04-06T10:16:18;100827.56;;;4.27;73.70
21276;BME280;36472;52.170;20.884;2023-04-06T10:18:55;100820.56;;;4.29;75.30
21276;BME280;36472;52.170;20.884;2023-04-06T10:21:29;100815.41;;;4.28;74.87
21276;BME280;36472;52.170;20.884;2023-04-06T10:24:01;100803.25;;;4.28;74.66
21276;BME280;36472;52.170;20.884;2023-04-06T10:26:31;100810.09;;;4.31;74.41
21276;BME280;36472;52.170;20.884;2023-04-06T10:29:03;100816.09;;;4.33;73.74
21276;BME280;36472;52.170;20.884;2023-04-06T10:31:33;100806.66;;;4.30;74.03
21276;BME280;36472;52.170;20.884;2023-04-06T10:34:07;100818.31;;;4.19;74.22
21276;BME280;36472;52.170;20.884;2023-04-06T10:36:38;100814.25;;;4.10;75.44
21276;BME280;36472;52.170;20.884;2023-04-06T10:39:07;100811.75;;;4.07;75.76
21276;BME280;36472;52.170;20.884;2023-04-06T10:41:42;100802.31;;;4.03;76.89
21276;BME280;36472;52.170;20.884;2023-04-06T10:44:20;100793.81;;;3.98;77.69
21276;BME280;36472;52.170;20.884;2023-04-06T10:46:57;100791.13;;;4.01;78.68
21276;BME280;36472;52.170;20.884;2023-04-06T10:49:27;100790.69;;;4.15;79.24
21276;BME280;36472;52.170;20.884;2023-04-06T10:51:58;100796.97;;;4.07;78.20
21276;BME280;36472;52.170;20.884;2023-04-06T10:54:28;100787.53;;;4.05;78.76
21276;BME280;36472;52.170;20.884;2023-04-06T10:56:59;100784.03;;;4.06;79.02
21276;BME280;36472;52.170;20.884;2023-04-06T10:59:29;100778.81;;;4.06;79.49
21276;BME280;36472;52.170;20.884;2023-04-06T11:01:58;100779.66;;;4.06;79.50
21276;BME280;36472;52.170;20.884;2023-04-06T11:04:27;100780.75;;;3.99;79.02
21276;BME280;36472;52.170;20.884;2023-04-06T11:06:57;100773.75;;;4.01;79.60
21276;BME280;36472;52.170;20.884;2023-04-06T11:09:27;100780.19;;;4.18;80.20
21276;BME280;36472;52.170;20.884;2023-04-06T11:11:57;100778.31;;;4.21;80.41
21276;BME280;36472;52.170;20.884;2023-04-06T11:14:26;100777.72;;;4.40;79.65
21276;BME280;36472;52.170;20.884;2023-04-06T11:16:55;100776.44;;;4.26;79.67
21276;BME280;36472;52.170;20.884;2023-04-06T11:19:24;100775.25;;;4.35;80.10
21276;BME280;36472;52.170;20.884;2023-04-06T11:21:54;100770.28;;;4.29;79.13
21276;BME280;36472;52.170;20.884;2023-04-06T11:24:27;100769.38;;;4.30;79.68
21276;BME280;36472;52.170;20.884;2023-04-06T11:26:58;100760.44;;;4.37;78.99
21276;BME280;36472;52.170;20.884;2023-04-06T11:29:30;100753.66;;;4.33;78.62
21276;BME280;36472;52.170;20.884;2023-04-06T11:32:03;100758.16;;;4.28;79.54
21276;BME280;36472;52.170;20.884;2023-04-06T11:34:35;100761.66;;;4.27;79.57
21276;BME280;36472;52.170;20.884;2023-04-06T11:37:08;100762.53;;;4.27;79.47
21276;BME280;36472;52.170;20.884;2023-04-06T11:39:42;100753.97;;;4.24;79.77
21276;BME280;36472;52.170;20.884;2023-04-06T11:42:12;100752.13;;;4.27;80.37
21276;BME280;36472;52.170;20.884;2023-04-06T11:44:43;100750.22;;;4.33;80.67
21276;BME280;36472;52.170;20.884;2023-04-06T11:47:13;100748.59;;;4.28;80.95
21276;BME280;36472;52.170;20.884;2023-04-06T11:49:43;100740.63;;;4.33;81.12
21276;BME280;36472;52.170;20.884;2023-04-06T11:52:18;100745.47;;;4.19;80.93
21276;BME280;36472;52.170;20.884;2023-04-06T11:54:51;100745.47;;;4.19;80.60
21276;BME280;36472;52.170;20.884;2023-04-06T11:57:21;100741.53;;;4.32;80.94
21276;BME280;36472;52.170;20.884;2023-04-06T11:59:52;100731.50;;;4.21;81.87
21276;BME280;36472;52.170;20.884;2023-04-06T12:02:21;100733.03;;;4.27;82.11
21276;BME280;36472;52.170;20.884;2023-04-06T12:04:50;100733.94;;;4.26;82.53
21276;BME280;36472;52.170;20.884;2023-04-06T12:07:19;100731.41;;;4.24;81.88
21276;BME280;36472;52.170;20.884;2023-04-06T12:09:49;100726.09;;;4.27;82.16
21276;BME280;36472;52.170;20.884;2023-04-06T12:12:18;100725.03;;;4.33;82.05
21276;BME280;36472;52.170;20.884;2023-04-06T12:14:47;100715.25;;;4.40;81.95
21276;BME280;36472;52.170;20.884;2023-04-06T12:17:17;100717.88;;;4.40;80.86
21276;BME280;36472;52.170;20.884;2023-04-06T12:19:46;100703.38;;;4.33;80.88
21276;BME280;36472;52.170;20.884;2023-04-06T12:22:17;100705.06;;;4.34;79.87
21276;BME280;36472;52.170;20.884;2023-04-06T12:24:46;100705.69;;;4.40;80.44
21276;BME280;36472;52.170;20.884;2023-04-06T12:27:16;100700.06;;;4.53;80.13
21276;BME280;36472;52.170;20.884;2023-04-06T12:29:45;100697.53;;;4.51;79.88
21276;BME280;36472;52.170;20.884;2023-04-06T12:32:14;100691.31;;;4.55;80.68
21276;BME280;36472;52.170;20.884;2023-04-06T12:34:43;100689.66;;;4.76;78.97
21276;BME280;36472;52.170;20.884;2023-04-06T12:37:13;100689.28;;;4.63;77.97
21276;BME280;36472;52.170;20.884;2023-04-06T12:39:42;100706.31;;;4.72;78.53
21276;BME280;36472;52.170;20.884;2023-04-06T12:42:12;100701.91;;;4.74;77.40
21276;BME280;36472;52.170;20.884;2023-04-06T12:44:42;100708.91;;;4.72;77.49
21276;BME280;36472;52.170;20.884;2023-04-06T12:47:12;100701.75;;;4.79;78.60
21276;BME280;36472;52.170;20.884;2023-04-06T12:49:40;100694.56;;;4.85;78.22
21276;BME280;36472;52.170;20.884;2023-04-06T12:52:10;100699.66;;;4.89;77.89
21276;BME280;36472;52.170;20.884;2023-04-06T12:54:39;100698.63;;;4.93;76.91
21276;BME280;36472;52.170;20.884;2023-04-06T12:57:08;100691.94;;;4.85;76.72
21276;BME280;36472;52.170;20.884;2023-04-06T12:59:38;100685.03;;;4.84;76.36
21276;BME280;36472;52.170;20.884;2023-04-06T13:02:09;100690.19;;;4.86;77.17
21276;BME280;36472;52.170;20.884;2023-04-06T13:04:39;100679.72;;;4.87;76.13
21276;BME280;36472;52.170;20.884;2023-04-06T13:07:07;100688.09;;;4.96;76.15
21276;BME280;36472;52.170;20.884;2023-04-06T13:09:37;100685.25;;;5.02;75.81
21276;BME280;36472;52.170;20.884;2023-04-06T13:12:06;100683.63;;;4.99;74.64